sensor_id;sensor_type;location;lat;lon;timestamp;pressure;altitude;pressure_sealevel;temperature;humidity
11038;BME280;5572;49.540;11.932;2023-01-29T00:01:21;97815.31;;;-1.86;100.00
11038;BME280;5572;49.540;11.932;2023-01-29T00:03:51;97805.72;;;-1.87;100.00
11038;BME280;5572;49.540;11.932;2023-01-29T00:06:17;97785.00;;;-1.84;100.00
11038;BME280;5572;49.540;11.932;2023-01-29T00:08:44;97789.84;;;-1.87;100.00
11038;BME280;5572;49.540;11.932;2023-01-29T00:11:11;97797.50;;;-1.92;100.00
11038;BME280;5572;49.540;11.932;2023-01-29T00:13:38;97845.22;;;-2.15;100.00
11038;BME280;5572;49.540;11.932;2023-01-29T00:16:05;97847.25;;;-2.02;100.00
11038;BME280;5572;49.540;11.932;2023-01-29T00:18:31;97842.25;;;-1.97;100.00
11038;BME280;5572;49.540;11.932;2023-01-29T00:20:59;97811.47;;;-1.98;100.00
11038;BME280;5572;49.540;11.932;2023-01-29T00:23:26;97840.66;;;-2.21;100.00
11038;BME280;5572;49.540;11.932;2023-01-29T00:25:52;97852.84;;;-1.97;100.00
11038;BME280;5572;49.540;11.932;2023-01-29T00:28:19;97821.78;;;-2.03;100.00
11038;BME280;5572;49.540;11.932;2023-01-29T00:30:45;97820.69;;;-1.94;100.00
11038;BME280;5572;49.540;11.932;2023-01-29T00:33:12;97789.53;;;-1.92;100.00
11038;BME280;5572;49.540;11.932;2023-01-29T00:35:39;97791.94;;;-1.97;100.00
11038;BME280;5572;49.540;11.932;2023-01-29T00:38:07;97798.22;;;-1.98;100.00
11038;BME280;5572;49.540;11.932;2023-01-29T00:40:36;97801.22;;;-2.01;100.00
11038;BME280;5572;49.540;11.932;2023-01-29T00:43:18;97823.97;;;-2.07;100.00
11038;BME280;5572;49.540;11.932;2023-01-29T00:46:02;97839.31;;;-2.02;100.00
11038;BME280;5572;49.540;11.932;2023-01-29T00:48:30;97828.28;;;-1.91;100.00
11038;BME280;5572;49.540;11.932;2023-01-29T00:50:57;97803.78;;;-1.93;100.00
11038;BME280;5572;49.540;11.932;2023-01-29T00:53:25;97815.00;;;-2.06;100.00
11038;BME280;5572;49.540;11.932;2023-01-29T00:55:51;97845.41;;;-2.16;100.00
11038;BME280;5572;49.540;11.932;2023-01-29T00:58:18;97846.41;;;-2.17;100.00
11038;BME280;5572;49.540;11.932;2023-01-29T01:00:47;97853.13;;;-2.29;100.00
11038;BME280;5572;49.540;11.932;2023-01-29T01:03:14;97865.25;;;-1.98;100.00
11038;BME280;5572;49.540;11.932;2023-01-29T01:05:40;97832.19;;;-2.02;100.00
11038;BME280;5572;49.540;11.932;2023-01-29T01:08:09;97860.75;;;-2.12;100.00
11038;BME280;5572;49.540;11.932;2023-01-29T01:10:59;97847.50;;;-2.26;100.00
11038;BME280;5572;49.540;11.932;2023-01-29T01:13:25;97850.06;;;-2.18;100.00
11038;BME280;5572;49.540;11.932;2023-01-29T01:15:52;97833.66;;;-1.99;100.00
11038;BME280;5572;49.540;11.932;2023-01-29T01:18:19;97807.44;;;-1.94;100.00
11038;BME280;5572;49.540;11.932;2023-01-29T01:20:47;97855.25;;;-2.25;100.00
11038;BME280;5572;49.540;11.932;2023-01-29T01:23:16;97852.78;;;-2.26;100.00
11038;BME280;5572;49.540;11.932;2023-01-29T01:25:43;97867.03;;;-2.27;100.00
11038;BME280;5572;49.540;11.932;2023-01-29T01:28:11;97858.28;;;-2.13;100.00
11038;BME280;5572;49.540;11.932;2023-01-29T01:30:37;97876.53;;;-2.18;100.00
11038;BME280;5572;49.540;11.932;2023-01-29T01:33:04;97878.56;;;-2.06;100.00
11038;BME280;5572;49.540;11.932;2023-01-29T01:35:30;97860.78;;;-1.97;100.00
11038;BME280;5572;49.540;11.932;2023-01-29T01:37:57;97865.00;;;-1.88;100.00
11038;BME280;5572;49.540;11.932;2023-01-29T01:40:24;97863.16;;;-2.02;100.00
11038;BME280;5572;49.540;11.932;2023-01-29T01:42:53;97891.69;;;-2.12;100.00
11038;BME280;5572;49.540;11.932;2023-01-29T01:45:25;97889.81;;;-2.04;100.00
11038;BME280;5572;49.540;11.932;2023-01-29T01:47:55;97852.47;;;-1.94;100.00
11038;BME280;5572;49.540;11.932;2023-01-29T01:50:30;97829.72;;;-1.89;100.00
11038;BME280;5572;49.540;11.932;2023-01-29T01:53:02;97820.59;;;-2.15;100.00
11038;BME280;5572;49.540;11.932;2023-01-29T01:55:31;97848.97;;;-2.09;100.00
11038;BME280;5572;49.540;11.932;2023-01-29T01:58:03;97847.06;;;-2.15;100.00
11038;BME280;5572;49.540;11.932;2023-01-29T02:00:33;97883.28;;;-2.16;100.00
11038;BME280;5572;49.540;11.932;2023-01-29T02:02:59;97863.09;;;-2.17;100.00
11038;BME280;5572;49.540;11.932;2023-01-29T02:05:44;97850.13;;;-2.26;100.00
11038;BME280;5572;49.540;11.932;2023-01-29T02:08:34;97851.59;;;-2.24;100.00
11038;BME280;5572;49.540;11.932;2023-01-29T02:11:20;97865.22;;;-2.12;100.00
11038;BME280;5572;49.540;11.932;2023-01-29T02:13:46;97853.81;;;-2.13;100.00
11038;BME280;5572;49.540;11.932;2023-01-29T02:16:19;97836.81;;;-2.18;100.00
11038;BME280;5572;49.540;11.932;2023-01-29T02:18:46;97831.19;;;-2.15;100.00
11038;BME280;5572;49.540;11.932;2023-01-29T02:21:30;97833.91;;;-2.09;100.00
11038;BME280;5572;49.540;11.932;2023-01-29T02:24:33;97849.72;;;-2.15;100.00
11038;BME280;5572;49.540;11.932;2023-01-29T02:27:08;97880.00;;;-2.18;100.00
11038;BME280;5572;49.540;11.932;2023-01-29T02:29:46;97877.00;;;-2.15;100.00
11038;BME280;5572;49.540;11.932;2023-01-29T02:32:24;97870.81;;;-2.07;100.00
11038;BME280;5572;49.540;11.932;2023-01-29T02:35:04;97864.94;;;-2.17;100.00
11038;BME280;5572;49.540;11.932;2023-01-29T02:37:56;97894.75;;;-2.23;100.00
11038;BME280;5572;49.540;11.932;2023-01-29T02:40:28;97895.84;;;-2.10;100.00
11038;BME280;5572;49.540;11.932;2023-01-29T02:43:02;97880.56;;;-2.08;100.00
11038;BME280;5572;49.540;11.932;2023-01-29T02:45:40;97886.00;;;-2.24;100.00
11038;BME280;5572;49.540;11.932;2023-01-29T02:48:14;97895.34;;;-2.13;100.00
11038;BME280;5572;49.540;11.932;2023-01-29T02:50:44;97895.75;;;-2.24;100.00
11038;BME280;5572;49.540;11.932;2023-01-29T02:53:15;97941.88;;;-2.19;100.00
11038;BME280;5572;49.540;11.932;2023-01-29T02:55:47;97924.38;;;-2.20;100.00
11038;BME280;5572;49.540;11.932;2023-01-29T02:58:20;97919.47;;;-2.08;100.00
11038;BME280;5572;49.540;11.932;2023-01-29T03:00:52;97898.31;;;-2.31;100.00
11038;BME280;5572;49.540;11.932;2023-01-29T03:03:24;97921.25;;;-2.23;100.00
11038;BME280;5572;49.540;11.932;2023-01-29T03:05:57;97910.06;;;-2.33;100.00
11038;BME280;5572;49.540;11.932;2023-01-29T03:08:30;97937.13;;;-2.23;100.00
11038;BME280;5572;49.540;11.932;2023-01-29T03:11:08;97932.78;;;-2.16;100.00
11038;BME280;5572;49.540;11.932;2023-01-29T03:13:41;97949.63;;;-2.32;100.00
11038;BME280;5572;49.540;11.932;2023-01-29T03:16:14;97999.00;;;-2.47;100.00
11038;BME280;5572;49.540;11.932;2023-01-29T03:18:49;98028.41;;;-2.42;100.00
11038;BME280;5572;49.540;11.932;2023-01-29T03:21:21;98015.44;;;-2.59;100.00
11038;BME280;5572;49.540;11.932;2023-01-29T03:24:10;98008.88;;;-2.71;100.00
11038;BME280;5572;49.540;11.932;2023-01-29T03:26:57;98039.75;;;-2.63;100.00
11038;BME280;5572;49.540;11.932;2023-01-29T03:29:45;98049.03;;;-2.67;100.00
11038;BME280;5572;49.540;11.932;2023-01-29T03:32:32;98055.66;;;-2.71;100.00
11038;BME280;5572;49.540;11.932;2023-01-29T03:35:04;98077.94;;;-2.58;100.00
11038;BME280;5572;49.540;11.932;2023-01-29T03:37:35;98071.13;;;-2.53;100.00
11038;BME280;5572;49.540;11.932;2023-01-29T03:40:05;98049.50;;;-2.56;100.00
11038;BME280;5572;49.540;11.932;2023-01-29T03:42:40;98018.63;;;-2.79;100.00
11038;BME280;5572;49.540;11.932;2023-01-29T03:45:13;98058.44;;;-2.57;100.00
11038;BME280;5572;49.540;11.932;2023-01-29T03:47:45;98014.19;;;-2.79;100.00
11038;BME280;5572;49.540;11.932;2023-01-29T03:50:28;98058.06;;;-2.54;100.00
11038;BME280;5572;49.540;11.932;2023-01-29T03:53:02;98049.16;;;-2.61;100.00
11038;BME280;5572;49.540;11.932;2023-01-29T03:55:34;98030.00;;;-2.63;100.00
11038;BME280;5572;49.540;11.932;2023-01-29T03:58:08;98008.06;;;-2.71;100.00
11038;BME280;5572;49.540;11.932;2023-01-29T04:00:41;98011.84;;;-2.74;100.00
11038;BME280;5572;49.540;11.932;2023-01-29T04:03:16;98007.56;;;-2.75;100.00
11038;BME280;5572;49.540;11.932;2023-01-29T04:05:49;98021.44;;;-2.73;100.00
11038;BME280;5572;49.540;11.932;2023-01-29T04:08:21;98019.16;;;-2.76;100.00
11038;BME280;5572;49.540;11.932;2023-01-29T04:10:50;98015.38;;;-2.89;100.00
11038;BME280;5572;49.540;11.932;2023-01-29T04:13:18;98038.28;;;-2.74;100.00
11038;BME280;5572;49.540;11.932;2023-01-29T04:15:49;98063.44;;;-2.70;100.00
11038;BME280;5572;49.540;11.932;2023-01-29T04:18:20;98040.00;;;-2.89;100.00
11038;BME280;5572;49.540;11.932;2023-01-29T04:20:47;98028.66;;;-3.05;100.00
11038;BME280;5572;49.540;11.932;2023-01-29T04:23:22;98057.31;;;-2.78;100.00
11038;BME280;5572;49.540;11.932;2023-01-29T04:25:54;98017.38;;;-2.91;100.00
11038;BME280;5572;49.540;11.932;2023-01-29T04:28:45;98029.22;;;-2.79;100.00
11038;BME280;5572;49.540;11.932;2023-01-29T04:31:16;97985.00;;;-2.93;100.00
11038;BME280;5572;49.540;11.932;2023-01-29T04:34:11;97981.16;;;-2.91;100.00
11038;BME280;5572;49.540;11.932;2023-01-29T04:36:53;97962.88;;;-3.00;100.00
11038;BME280;5572;49.540;11.932;2023-01-29T04:39:25;98048.47;;;-3.09;100.00
11038;BME280;5572;49.540;11.932;2023-01-29T04:42:05;98024.19;;;-3.13;100.00
11038;BME280;5572;49.540;11.932;2023-01-29T04:44:40;98010.97;;;-3.13;100.00
11038;BME280;5572;49.540;11.932;2023-01-29T04:47:20;97999.25;;;-3.18;100.00
11038;BME280;5572;49.540;11.932;2023-01-29T04:50:03;98003.69;;;-3.03;100.00
11038;BME280;5572;49.540;11.932;2023-01-29T04:52:42;97974.50;;;-3.25;100.00
11038;BME280;5572;49.540;11.932;2023-01-29T04:55:19;98000.88;;;-3.09;100.00
11038;BME280;5572;49.540;11.932;2023-01-29T04:57:55;98001.38;;;-2.98;100.00
11038;BME280;5572;49.540;11.932;2023-01-29T05:00:34;97982.59;;;-3.19;100.00
11038;BME280;5572;49.540;11.932;2023-01-29T05:03:13;98021.22;;;-3.10;100.00
11038;BME280;5572;49.540;11.932;2023-01-29T05:05:53;98015.66;;;-3.31;100.00
11038;BME280;5572;49.540;11.932;2023-01-29T05:08:29;98050.00;;;-3.15;100.00
11038;BME280;5572;49.540;11.932;2023-01-29T05:13:47;97993.34;;;-3.20;100.00
11038;BME280;5572;49.540;11.932;2023-01-29T05:16:20;97999.91;;;-3.08;100.00
11038;BME280;5572;49.540;11.932;2023-01-29T05:18:49;97992.44;;;-2.97;100.00
11038;BME280;5572;49.540;11.932;2023-01-29T05:21:19;97947.19;;;-3.10;100.00
11038;BME280;5572;49.540;11.932;2023-01-29T05:24:05;97960.72;;;-2.97;100.00
11038;BME280;5572;49.540;11.932;2023-01-29T05:26:35;97942.91;;;-3.11;100.00
11038;BME280;5572;49.540;11.932;2023-01-29T05:29:20;97973.59;;;-3.02;100.00
11038;BME280;5572;49.540;11.932;2023-01-29T05:31:46;97979.22;;;-2.97;100.00
11038;BME280;5572;49.540;11.932;2023-01-29T05:34:13;97963.25;;;-3.19;100.00
11038;BME280;5572;49.540;11.932;2023-01-29T05:36:42;98004.78;;;-2.89;100.00
11038;BME280;5572;49.540;11.932;2023-01-29T05:39:11;97948.72;;;-3.15;100.00
11038;BME280;5572;49.540;11.932;2023-01-29T05:41:41;98003.94;;;-2.82;100.00
11038;BME280;5572;49.540;11.932;2023-01-29T05:44:08;97953.72;;;-2.90;100.00
11038;BME280;5572;49.540;11.932;2023-01-29T05:46:35;97946.47;;;-2.88;100.00
11038;BME280;5572;49.540;11.932;2023-01-29T05:49:02;97946.75;;;-2.83;100.00
11038;BME280;5572;49.540;11.932;2023-01-29T05:51:28;97945.25;;;-2.77;100.00
11038;BME280;5572;49.540;11.932;2023-01-29T05:53:56;97939.28;;;-2.71;100.00
11038;BME280;5572;49.540;11.932;2023-01-29T05:56:23;97929.50;;;-2.71;100.00
11038;BME280;5572;49.540;11.932;2023-01-29T05:58:50;97919.81;;;-2.86;100.00
11038;BME280;5572;49.540;11.932;2023-01-29T06:01:19;97938.81;;;-2.83;100.00
11038;BME280;5572;49.540;11.932;2023-01-29T06:03:46;97949.63;;;-2.92;100.00
11038;BME280;5572;49.540;11.932;2023-01-29T06:06:14;97967.28;;;-2.85;100.00
11038;BME280;5572;49.540;11.932;2023-01-29T06:08:41;97956.09;;;-3.03;100.00
11038;BME280;5572;49.540;11.932;2023-01-29T06:11:11;97984.47;;;-2.89;100.00
11038;BME280;5572;49.540;11.932;2023-01-29T06:13:39;97970.91;;;-2.86;100.00
11038;BME280;5572;49.540;11.932;2023-01-29T06:16:07;97970.41;;;-2.89;100.00
11038;BME280;5572;49.540;11.932;2023-01-29T06:18:35;97963.00;;;-2.94;100.00
11038;BME280;5572;49.540;11.932;2023-01-29T06:21:03;97947.63;;;-2.90;100.00
11038;BME280;5572;49.540;11.932;2023-01-29T06:23:31;97944.53;;;-3.02;100.00
11038;BME280;5572;49.540;11.932;2023-01-29T06:25:59;97993.13;;;-3.11;100.00
11038;BME280;5572;49.540;11.932;2023-01-29T06:28:34;98018.72;;;-2.95;100.00
11038;BME280;5572;49.540;11.932;2023-01-29T06:31:03;98004.50;;;-2.94;100.00
11038;BME280;5572;49.540;11.932;2023-01-29T06:33:30;97983.00;;;-2.91;100.00
11038;BME280;5572;49.540;11.932;2023-01-29T06:35:58;97978.38;;;-2.97;100.00
11038;BME280;5572;49.540;11.932;2023-01-29T06:38:26;97964.88;;;-3.02;100.00
11038;BME280;5572;49.540;11.932;2023-01-29T06:40:55;98044.00;;;-3.01;100.00
11038;BME280;5572;49.540;11.932;2023-01-29T06:43:23;98022.25;;;-3.19;100.00
11038;BME280;5572;49.540;11.932;2023-01-29T06:45:52;98063.84;;;-2.97;100.00
11038;BME280;5572;49.540;11.932;2023-01-29T06:48:20;98025.53;;;-3.09;100.00
11038;BME280;5572;49.540;11.932;2023-01-29T06:50:47;98008.50;;;-3.06;100.00
11038;BME280;5572;49.540;11.932;2023-01-29T06:53:20;98021.25;;;-3.18;100.00
11038;BME280;5572;49.540;11.932;2023-01-29T06:55:56;98059.75;;;-3.15;100.00
11038;BME280;5572;49.540;11.932;2023-01-29T06:58:35;98052.34;;;-3.36;100.00
11038;BME280;5572;49.540;11.932;2023-01-29T07:01:10;98071.63;;;-3.19;100.00
11038;BME280;5572;49.540;11.932;2023-01-29T07:03:38;98045.72;;;-3.32;100.00
11038;BME280;5572;49.540;11.932;2023-01-29T07:06:07;98068.84;;;-3.26;100.00
11038;BME280;5572;49.540;11.932;2023-01-29T07:08:35;98067.00;;;-3.17;100.00
11038;BME280;5572;49.540;11.932;2023-01-29T07:11:03;98028.69;;;-3.29;100.00
11038;BME280;5572;49.540;11.932;2023-01-29T07:13:33;98051.31;;;-3.19;100.00
11038;BME280;5572;49.540;11.932;2023-01-29T07:16:01;98036.91;;;-3.08;100.00
11038;BME280;5572;49.540;11.932;2023-01-29T07:18:31;98042.72;;;-3.21;100.00
11038;BME280;5572;49.540;11.932;2023-01-29T07:20:58;98052.47;;;-3.13;100.00
11038;BME280;5572;49.540;11.932;2023-01-29T07:23:33;98084.69;;;-3.18;100.00
11038;BME280;5572;49.540;11.932;2023-01-29T07:26:01;98067.00;;;-3.01;100.00
11038;BME280;5572;49.540;11.932;2023-01-29T07:28:28;98058.22;;;-3.02;100.00
11038;BME280;5572;49.540;11.932;2023-01-29T07:30:56;98083.22;;;-3.12;100.00
11038;BME280;5572;49.540;11.932;2023-01-29T07:33:23;98093.28;;;-3.24;100.00
11038;BME280;5572;49.540;11.932;2023-01-29T07:35:51;98087.31;;;-3.10;100.00
11038;BME280;5572;49.540;11.932;2023-01-29T07:38:24;98084.66;;;-3.02;100.00
11038;BME280;5572;49.540;11.932;2023-01-29T07:41:03;98091.66;;;-3.25;100.00
11038;BME280;5572;49.540;11.932;2023-01-29T07:43:39;98119.22;;;-3.03;100.00
11038;BME280;5572;49.540;11.932;2023-01-29T07:46:07;98084.19;;;-3.13;100.00
11038;BME280;5572;49.540;11.932;2023-01-29T07:48:34;98109.31;;;-3.01;100.00
11038;BME280;5572;49.540;11.932;2023-01-29T07:51:03;98120.31;;;-2.82;100.00
11038;BME280;5572;49.540;11.932;2023-01-29T07:53:29;98078.38;;;-2.85;100.00
11038;BME280;5572;49.540;11.932;2023-01-29T07:56:00;98072.56;;;-2.80;100.00
11038;BME280;5572;49.540;11.932;2023-01-29T07:58:27;98070.22;;;-2.75;100.00
11038;BME280;5572;49.540;11.932;2023-01-29T08:00:54;98114.53;;;-2.77;100.00
11038;BME280;5572;49.540;11.932;2023-01-29T08:03:21;98127.22;;;-2.57;100.00
11038;BME280;5572;49.540;11.932;2023-01-29T08:05:48;98087.56;;;-2.65;100.00
11038;BME280;5572;49.540;11.932;2023-01-29T08:08:19;98168.41;;;-2.78;100.00
11038;BME280;5572;49.540;11.932;2023-01-29T08:10:46;98138.81;;;-2.66;100.00
11038;BME280;5572;49.540;11.932;2023-01-29T08:13:13;98132.56;;;-2.81;100.00
11038;BME280;5572;49.540;11.932;2023-01-29T08:15:43;98153.38;;;-2.70;100.00
11038;BME280;5572;49.540;11.932;2023-01-29T08:18:11;98144.09;;;-2.74;100.00
11038;BME280;5572;49.540;11.932;2023-01-29T08:20:38;98150.25;;;-2.97;100.00
11038;BME280;5572;49.540;11.932;2023-01-29T08:23:06;98214.91;;;-3.00;100.00
11038;BME280;5572;49.540;11.932;2023-01-29T08:25:35;98172.59;;;-3.00;100.00
11038;BME280;5572;49.540;11.932;2023-01-29T08:28:05;98221.34;;;-2.86;100.00
11038;BME280;5572;49.540;11.932;2023-01-29T08:30:33;98197.38;;;-2.77;100.00
11038;BME280;5572;49.540;11.932;2023-01-29T08:33:02;98232.41;;;-2.99;100.00
11038;BME280;5572;49.540;11.932;2023-01-29T08:35:30;98240.84;;;-2.79;100.00
11038;BME280;5572;49.540;11.932;2023-01-29T08:37:58;98239.69;;;-2.61;100.00
11038;BME280;5572;49.540;11.932;2023-01-29T08:40:29;98192.56;;;-2.73;100.00
11038;BME280;5572;49.540;11.932;2023-01-29T08:42:58;98175.69;;;-2.64;100.00
11038;BME280;5572;49.540;11.932;2023-01-29T08:45:25;98170.69;;;-2.44;100.00
11038;BME280;5572;49.540;11.932;2023-01-29T08:47:52;98165.25;;;-2.58;100.00
11038;BME280;5572;49.540;11.932;2023-01-29T08:50:19;98161.97;;;-2.68;100.00
11038;BME280;5572;49.540;11.932;2023-01-29T08:52:46;98233.38;;;-2.36;100.00
11038;BME280;5572;49.540;11.932;2023-01-29T08:55:14;98181.06;;;-2.34;100.00
11038;BME280;5572;49.540;11.932;2023-01-29T08:57:41;98159.69;;;-2.25;100.00
11038;BME280;5572;49.540;11.932;2023-01-29T09:00:10;98180.75;;;-2.39;100.00
11038;BME280;5572;49.540;11.932;2023-01-29T09:02:39;98140.44;;;-2.49;100.00
11038;BME280;5572;49.540;11.932;2023-01-29T09:05:09;98206.38;;;-2.24;100.00
11038;BME280;5572;49.540;11.932;2023-01-29T09:07:36;98161.59;;;-2.49;100.00
11038;BME280;5572;49.540;11.932;2023-01-29T09:10:04;98140.41;;;-2.41;100.00
11038;BME280;5572;49.540;11.932;2023-01-29T09:12:31;98171.91;;;-2.16;100.00
11038;BME280;5572;49.540;11.932;2023-01-29T09:14:58;98149.84;;;-2.00;100.00
11038;BME280;5572;49.540;11.932;2023-01-29T09:17:26;98232.47;;;-2.05;100.00
11038;BME280;5572;49.540;11.932;2023-01-29T09:19:53;98172.19;;;-2.03;100.00
11038;BME280;5572;49.540;11.932;2023-01-29T09:22:20;98212.28;;;-2.14;100.00
11038;BME280;5572;49.540;11.932;2023-01-29T09:24:50;98198.16;;;-1.98;100.00
11038;BME280;5572;49.540;11.932;2023-01-29T09:27:17;98228.25;;;-2.30;100.00
11038;BME280;5572;49.540;11.932;2023-01-29T09:29:44;98259.44;;;-2.09;100.00
11038;BME280;5572;49.540;11.932;2023-01-29T09:32:11;98186.69;;;-2.29;100.00
11038;BME280;5572;49.540;11.932;2023-01-29T09:34:39;98239.91;;;-1.62;100.00
11038;BME280;5572;49.540;11.932;2023-01-29T09:37:06;98179.25;;;-1.87;100.00
11038;BME280;5572;49.540;11.932;2023-01-29T09:39:33;98170.31;;;-1.34;100.00
11038;BME280;5572;49.540;11.932;2023-01-29T09:42:07;98192.28;;;-1.78;100.00
11038;BME280;5572;49.540;11.932;2023-01-29T09:44:51;98249.94;;;-1.88;100.00
11038;BME280;5572;49.540;11.932;2023-01-29T09:47:24;98238.22;;;-2.01;100.00
11038;BME280;5572;49.540;11.932;2023-01-29T09:49:57;98207.03;;;-1.75;100.00
11038;BME280;5572;49.540;11.932;2023-01-29T09:52:32;98253.63;;;-1.97;100.00
11038;BME280;5572;49.540;11.932;2023-01-29T09:55:04;98192.16;;;-1.92;100.00
11038;BME280;5572;49.540;11.932;2023-01-29T09:57:38;98173.94;;;-1.57;100.00
11038;BME280;5572;49.540;11.932;2023-01-29T10:00:17;98230.81;;;-1.68;100.00
11038;BME280;5572;49.540;11.932;2023-01-29T10:03:08;98215.16;;;-1.55;100.00
11038;BME280;5572;49.540;11.932;2023-01-29T10:05:53;98294.47;;;-1.37;100.00
11038;BME280;5572;49.540;11.932;2023-01-29T10:11:44;98215.81;;;-1.53;100.00
11038;BME280;5572;49.540;11.932;2023-01-29T10:14:15;98319.63;;;-1.79;100.00
11038;BME280;5572;49.540;11.932;2023-01-29T10:17:01;98264.31;;;-1.14;100.00
11038;BME280;5572;49.540;11.932;2023-01-29T10:19:51;98324.84;;;-2.10;100.00
11038;BME280;5572;49.540;11.932;2023-01-29T10:25:23;98393.25;;;-1.43;100.00
11038;BME280;5572;49.540;11.932;2023-01-29T10:27:52;98262.63;;;-1.37;100.00
11038;BME280;5572;49.540;11.932;2023-01-29T10:30:25;98287.69;;;-1.40;100.00
11038;BME280;5572;49.540;11.932;2023-01-29T10:32:54;98304.69;;;-1.73;100.00
11038;BME280;5572;49.540;11.932;2023-01-29T10:35:26;98286.75;;;-1.55;100.00
11038;BME280;5572;49.540;11.932;2023-01-29T10:37:58;98316.50;;;-1.06;100.00
11038;BME280;5572;49.540;11.932;2023-01-29T10:40:37;98320.28;;;-1.01;100.00
11038;BME280;5572;49.540;11.932;2023-01-29T10:43:11;98307.34;;;-0.51;100.00
11038;BME280;5572;49.540;11.932;2023-01-29T10:45:44;98394.25;;;-0.98;100.00
11038;BME280;5572;49.540;11.932;2023-01-29T10:48:34;98405.66;;;-0.59;100.00
11038;BME280;5572;49.540;11.932;2023-01-29T10:51:21;98547.50;;;-1.16;100.00
11038;BME280;5572;49.540;11.932;2023-01-29T10:54:07;98468.34;;;-0.96;100.00
11038;BME280;5572;49.540;11.932;2023-01-29T10:56:54;98581.78;;;-1.78;100.00
11038;BME280;5572;49.540;11.932;2023-01-29T10:59:36;98511.69;;;-1.20;100.00
11038;BME280;5572;49.540;11.932;2023-01-29T11:02:14;98450.00;;;-1.06;100.00
11038;BME280;5572;49.540;11.932;2023-01-29T11:04:42;98480.53;;;-1.18;100.00
11038;BME280;5572;49.540;11.932;2023-01-29T11:07:09;98440.38;;;-1.07;100.00
11038;BME280;5572;49.540;11.932;2023-01-29T11:09:41;98464.25;;;-1.07;100.00
11038;BME280;5572;49.540;11.932;2023-01-29T11:12:12;98453.53;;;-0.83;100.00
11038;BME280;5572;49.540;11.932;2023-01-29T11:14:46;98422.41;;;-0.89;100.00
11038;BME280;5572;49.540;11.932;2023-01-29T11:17:16;98423.91;;;-0.94;100.00
11038;BME280;5572;49.540;11.932;2023-01-29T11:19:45;98433.72;;;-1.03;100.00
11038;BME280;5572;49.540;11.932;2023-01-29T11:22:14;98399.25;;;-0.73;100.00
11038;BME280;5572;49.540;11.932;2023-01-29T11:24:41;98388.19;;;-0.84;100.00
11038;BME280;5572;49.540;11.932;2023-01-29T11:27:22;98442.22;;;-0.69;100.00
11038;BME280;5572;49.540;11.932;2023-01-29T11:29:51;98393.44;;;-0.68;100.00
11038;BME280;5572;49.540;11.932;2023-01-29T11:32:25;98352.31;;;-0.50;100.00
11038;BME280;5572;49.540;11.932;2023-01-29T11:34:58;98446.41;;;-1.29;100.00
11038;BME280;5572;49.540;11.932;2023-01-29T11:37:35;98405.53;;;-1.04;100.00
11038;BME280;5572;49.540;11.932;2023-01-29T11:40:32;98439.16;;;-0.58;100.00
11038;BME280;5572;49.540;11.932;2023-01-29T11:43:16;98429.03;;;-0.55;100.00
11038;BME280;5572;49.540;11.932;2023-01-29T11:45:44;98440.63;;;-0.56;100.00
11038;BME280;5572;49.540;11.932;2023-01-29T11:48:14;98466.00;;;-0.45;100.00
11038;BME280;5572;49.540;11.932;2023-01-29T11:50:42;98468.75;;;-0.69;100.00
11038;BME280;5572;49.540;11.932;2023-01-29T11:53:23;98467.94;;;-0.78;100.00
11038;BME280;5572;49.540;11.932;2023-01-29T11:55:50;98503.97;;;-0.45;100.00
11038;BME280;5572;49.540;11.932;2023-01-29T11:58:23;98483.78;;;-0.54;100.00
11038;BME280;5572;49.540;11.932;2023-01-29T12:00:52;98504.66;;;-0.43;100.00
11038;BME280;5572;49.540;11.932;2023-01-29T12:03:21;98476.25;;;-0.42;100.00
11038;BME280;5572;49.540;11.932;2023-01-29T12:05:55;98501.88;;;-0.27;100.00
11038;BME280;5572;49.540;11.932;2023-01-29T12:08:24;98475.25;;;-0.11;100.00
11038;BME280;5572;49.540;11.932;2023-01-29T12:11:06;98514.97;;;-0.17;100.00
11038;BME280;5572;49.540;11.932;2023-01-29T12:13:35;98511.56;;;-0.72;100.00
11038;BME280;5572;49.540;11.932;2023-01-29T12:16:20;98506.53;;;-0.59;100.00
11038;BME280;5572;49.540;11.932;2023-01-29T12:18:52;98478.06;;;-0.12;100.00
11038;BME280;5572;49.540;11.932;2023-01-29T12:21:28;98517.97;;;0.02;100.00
11038;BME280;5572;49.540;11.932;2023-01-29T12:24:00;98495.72;;;-0.19;100.00
11038;BME280;5572;49.540;11.932;2023-01-29T12:26:32;98495.72;;;-0.19;100.00
11038;BME280;5572;49.540;11.932;2023-01-29T12:29:14;98460.28;;;0.10;100.00
11038;BME280;5572;49.540;11.932;2023-01-29T12:31:50;98493.78;;;-0.03;100.00
11038;BME280;5572;49.540;11.932;2023-01-29T12:34:25;98508.06;;;-0.04;100.00
11038;BME280;5572;49.540;11.932;2023-01-29T12:36:58;98502.47;;;0.13;100.00
11038;BME280;5572;49.540;11.932;2023-01-29T12:39:26;98495.59;;;-0.03;100.00
11038;BME280;5572;49.540;11.932;2023-01-29T12:41:56;98508.03;;;-0.26;100.00
11038;BME280;5572;49.540;11.932;2023-01-29T12:44:31;98518.53;;;-0.33;100.00
11038;BME280;5572;49.540;11.932;2023-01-29T12:47:00;98534.56;;;-0.18;100.00
11038;BME280;5572;49.540;11.932;2023-01-29T12:49:31;98540.63;;;-0.10;100.00
11038;BME280;5572;49.540;11.932;2023-01-29T12:52:03;98576.50;;;-0.06;100.00
11038;BME280;5572;49.540;11.932;2023-01-29T12:54:37;98577.03;;;-0.57;100.00
11038;BME280;5572;49.540;11.932;2023-01-29T12:57:08;98588.22;;;-0.23;100.00
11038;BME280;5572;49.540;11.932;2023-01-29T12:59:42;98561.75;;;-0.47;100.00
11038;BME280;5572;49.540;11.932;2023-01-29T13:02:17;98551.41;;;-0.34;100.00
11038;BME280;5572;49.540;11.932;2023-01-29T13:04:52;98525.94;;;-0.20;100.00
11038;BME280;5572;49.540;11.932;2023-01-29T13:07:24;98505.53;;;0.02;100.00
11038;BME280;5572;49.540;11.932;2023-01-29T13:09:56;98542.03;;;0.08;100.00
11038;BME280;5572;49.540;11.932;2023-01-29T13:12:30;98539.88;;;-0.18;100.00
11038;BME280;5572;49.540;11.932;2023-01-29T13:15:02;98580.81;;;-0.35;100.00
11038;BME280;5572;49.540;11.932;2023-01-29T13:17:34;98577.50;;;-0.07;100.00
11038;BME280;5572;49.540;11.932;2023-01-29T13:20:03;98580.63;;;-0.34;100.00
11038;BME280;5572;49.540;11.932;2023-01-29T13:22:36;98552.44;;;-0.12;100.00
11038;BME280;5572;49.540;11.932;2023-01-29T13:25:04;98581.19;;;-0.46;100.00